createdAt,value
2017-03-21T00:00:36.643Z,69.23
2017-03-21T00:01:17.206Z,69.71
2017-03-21T00:01:57.794Z,69.04
2017-03-21T00:02:38.371Z,68.85
2017-03-21T00:03:18.942Z,69.04
2017-03-21T00:03:59.540Z,69.62
2017-03-21T00:04:40.100Z,69.43
2017-03-21T00:05:20.718Z,69.14
2017-03-21T00:06:01.320Z,69.52
2017-03-21T00:06:41.934Z,69.62
2017-03-21T00:07:22.476Z,69.52
2017-03-21T00:08:03.048Z,69.52
2017-03-21T00:08:43.617Z,69.23
2017-03-21T00:09:24.265Z,69.23
2017-03-21T00:10:04.832Z,69.52
2017-03-21T00:10:45.592Z,69.14
2017-03-21T00:11:26.248Z,69.71
2017-03-21T00:12:06.951Z,69.62
2017-03-21T00:12:47.620Z,69.23
2017-03-21T00:13:28.235Z,69.23
2017-03-21T00:14:08.810Z,69.23
2017-03-21T00:14:49.429Z,69.71
2017-03-21T00:15:30.022Z,69.52
2017-03-21T00:16:10.613Z,69.62
2017-03-21T00:16:51.198Z,69.62
2017-03-21T00:17:31.797Z,69.52
2017-03-21T00:18:12.389Z,69.33
2017-03-21T00:18:52.980Z,69.43
2017-03-21T00:19:33.565Z,69.9
2017-03-21T00:20:14.144Z,70
2017-03-21T00:20:54.730Z,70
2017-03-21T00:21:35.355Z,70
2017-03-21T00:22:15.966Z,69.9
2017-03-21T00:22:56.580Z,69.43
2017-03-21T00:23:37.183Z,69.9
2017-03-21T00:24:17.759Z,69.81
2017-03-21T00:24:58.347Z,69.71
2017-03-21T00:25:38.906Z,70.28
2017-03-21T00:26:19.515Z,70.47
2017-03-21T00:27:00.089Z,69.52
2017-03-21T00:27:40.722Z,69.62
2017-03-21T00:28:21.300Z,69.71
2017-03-21T00:29:01.960Z,70
2017-03-21T00:29:42.601Z,69.62
2017-03-21T00:30:23.191Z,70
2017-03-21T00:31:03.821Z,69.9
2017-03-21T00:31:44.367Z,70
2017-03-21T00:32:24.950Z,69.33
2017-03-21T00:33:05.551Z,69.33
2017-03-21T00:33:46.145Z,70
2017-03-21T00:34:26.737Z,69.62
2017-03-21T00:35:07.328Z,69.43
2017-03-21T00:35:47.913Z,69.52
2017-03-21T00:36:28.523Z,69.9
2017-03-21T00:37:09.098Z,69.43
2017-03-21T00:37:49.796Z,69.9
2017-03-21T00:38:30.390Z,69.81
2017-03-21T00:39:11.024Z,69.33
2017-03-21T00:39:51.670Z,69.43
2017-03-21T00:40:32.213Z,69.33
2017-03-21T00:41:12.868Z,69.71
2017-03-21T00:41:53.418Z,69.62
2017-03-21T00:42:34.005Z,69.52
2017-03-21T00:43:14.583Z,69.43
2017-03-21T00:43:55.167Z,69.33
2017-03-21T00:44:35.759Z,69.23
2017-03-21T00:45:16.340Z,69.62
2017-03-21T00:45:56.941Z,69.52
2017-03-21T00:46:37.509Z,69.43
2017-03-21T00:47:18.106Z,69.43
2017-03-21T00:47:58.730Z,69.81
2017-03-21T00:48:39.366Z,70
2017-03-21T00:49:19.933Z,70
2017-03-21T00:50:00.538Z,69.23
2017-03-21T00:50:41.181Z,69.43
2017-03-21T00:51:21.848Z,69.43
2017-03-21T00:52:02.432Z,69.81
2017-03-21T00:52:43.045Z,69.43
2017-03-21T00:53:23.646Z,69.33
2017-03-21T00:54:04.237Z,69.62
2017-03-21T00:54:44.885Z,69.33
2017-03-21T00:55:25.459Z,69.52
2017-03-21T00:56:06.040Z,69.62
2017-03-21T00:56:46.628Z,69.62
2017-03-21T00:57:27.219Z,69.62
2017-03-21T00:58:07.877Z,69.52
2017-03-21T00:58:48.468Z,69.33
2017-03-21T00:59:29.047Z,69.81
2017-03-21T01:00:09.639Z,69.33
2017-03-21T01:00:51.041Z,69.62
2017-03-21T01:01:31.620Z,69.52
2017-03-21T01:02:12.200Z,69.52
2017-03-21T01:02:52.783Z,69.23
2017-03-21T01:03:33.367Z,69.43
2017-03-21T01:04:13.929Z,69.71
2017-03-21T01:04:54.510Z,69.43
2017-03-21T01:05:35.087Z,69.52
2017-03-21T01:06:15.662Z,69.71
2017-03-21T01:06:56.242Z,69.23
2017-03-21T01:07:36.842Z,69.14
2017-03-21T01:08:17.433Z,69.33
2017-03-21T01:08:58.051Z,69.52
2017-03-21T01:09:38.659Z,69.43
2017-03-21T01:10:19.253Z,69.52
2017-03-21T01:11:00.002Z,69.43
2017-03-21T01:11:40.602Z,69.71
2017-03-21T01:12:21.173Z,69.62
2017-03-21T01:13:01.763Z,69.62
2017-03-21T01:13:42.327Z,69.23
2017-03-21T01:14:22.915Z,69.04
2017-03-21T01:15:03.517Z,69.62
2017-03-21T01:15:44.156Z,69.33
2017-03-21T01:16:24.749Z,69.62
2017-03-21T01:17:05.339Z,68.95
2017-03-21T01:17:45.923Z,68.85
2017-03-21T01:18:26.501Z,69.14
2017-03-21T01:19:07.124Z,69.43
2017-03-21T01:19:47.669Z,68.95
2017-03-21T01:20:28.261Z,68.95
2017-03-21T01:21:08.844Z,68.95
2017-03-21T01:21:49.411Z,68.85
2017-03-21T01:22:29.987Z,69.04
2017-03-21T01:23:10.564Z,69.04
2017-03-21T01:23:51.162Z,68.95
2017-03-21T01:24:31.734Z,68.76
2017-03-21T01:25:12.357Z,68.57
2017-03-21T01:25:52.963Z,68.76
2017-03-21T01:26:33.563Z,68.95
2017-03-21T01:27:14.139Z,68.66
2017-03-21T01:27:54.710Z,68.76
2017-03-21T01:28:35.274Z,69.04
2017-03-21T01:29:15.869Z,69.04
2017-03-21T01:29:56.455Z,68.76
2017-03-21T01:30:37.025Z,68.95
2017-03-21T01:31:17.623Z,68.76
2017-03-21T01:31:58.202Z,68.85
2017-03-21T01:32:38.785Z,68.95
2017-03-21T01:33:19.370Z,68.85
2017-03-21T01:33:59.959Z,68.76
2017-03-21T01:34:40.531Z,68.85
2017-03-21T01:35:21.142Z,68.66
2017-03-21T01:36:01.710Z,68.57
2017-03-21T01:36:42.292Z,68.28
2017-03-21T01:37:22.862Z,68.28
2017-03-21T01:38:03.444Z,68.18
2017-03-21T01:38:44.029Z,68.66
2017-03-21T01:39:24.624Z,68.57
2017-03-21T01:40:05.204Z,68.38
2017-03-21T01:40:45.789Z,68.28
2017-03-21T01:41:26.396Z,68.18
2017-03-21T01:42:06.975Z,68.38
2017-03-21T01:42:47.549Z,68.18
2017-03-21T01:43:28.137Z,68.28
2017-03-21T01:44:08.714Z,68.28
2017-03-21T01:44:49.307Z,68.28
2017-03-21T01:45:29.922Z,68.47
2017-03-21T01:46:10.512Z,67.9
2017-03-21T01:46:51.114Z,68.66
2017-03-21T01:47:31.717Z,68.47
2017-03-21T01:48:12.301Z,68.18
2017-03-21T01:48:52.937Z,68.09
2017-03-21T01:49:33.581Z,68.09
2017-03-21T01:50:14.088Z,68.47
2017-03-21T01:50:54.671Z,68.28
2017-03-21T01:51:35.282Z,68.09
2017-03-21T01:52:15.879Z,68.18
2017-03-21T01:52:56.459Z,68.28
2017-03-21T01:53:37.040Z,68.38
2017-03-21T01:54:17.621Z,68.28
2017-03-21T01:54:58.244Z,68.09
2017-03-21T01:55:38.858Z,68.09
2017-03-21T01:56:19.438Z,68.38
2017-03-21T01:57:00.047Z,67.99
2017-03-21T01:57:40.675Z,67.8
2017-03-21T01:58:21.265Z,67.71
2017-03-21T01:59:02.306Z,67.99
2017-03-21T01:59:42.915Z,67.99
2017-03-21T02:00:23.577Z,67.8
2017-03-21T02:01:04.164Z,67.99
2017-03-21T02:01:44.740Z,67.99
2017-03-21T02:02:25.326Z,67.8
2017-03-21T02:03:05.899Z,67.99
2017-03-21T02:03:46.458Z,67.71
2017-03-21T02:04:27.092Z,67.71
2017-03-21T02:05:07.662Z,67.52
2017-03-21T02:05:48.247Z,67.8
2017-03-21T02:06:28.844Z,67.99
2017-03-21T02:07:09.416Z,68.09
2017-03-21T02:07:49.997Z,67.99
2017-03-21T02:08:30.569Z,68.09
2017-03-21T02:09:11.164Z,68.09
2017-03-21T02:09:51.731Z,67.99
2017-03-21T02:10:32.342Z,67.71
2017-03-21T02:11:12.914Z,67.8
2017-03-21T02:11:53.511Z,67.9
2017-03-21T02:12:34.115Z,67.8
2017-03-21T02:13:14.686Z,67.9
2017-03-21T02:13:55.275Z,67.8
2017-03-21T02:14:35.864Z,67.99
2017-03-21T02:15:16.462Z,67.99
2017-03-21T02:15:57.036Z,67.71
2017-03-21T02:16:37.655Z,67.8
2017-03-21T02:17:18.187Z,67.61
2017-03-21T02:17:58.767Z,67.42
2017-03-21T02:18:39.356Z,67.33
2017-03-21T02:19:19.931Z,67.23
2017-03-21T02:20:00.532Z,67.52
2017-03-21T02:20:41.122Z,67.33
2017-03-21T02:21:21.716Z,67.33
2017-03-21T02:22:02.304Z,67.23
2017-03-21T02:22:42.888Z,67.33
2017-03-21T02:23:23.488Z,67.33
2017-03-21T02:24:04.133Z,67.8
2017-03-21T02:24:44.769Z,67.61
2017-03-21T02:25:25.321Z,67.8
2017-03-21T02:26:05.921Z,67.42
2017-03-21T02:26:46.504Z,67.42
2017-03-21T02:27:27.105Z,67.52
2017-03-21T02:28:07.667Z,67.52
2017-03-21T02:28:48.259Z,67.33
2017-03-21T02:29:28.855Z,67.52
2017-03-21T02:30:09.438Z,67.42
2017-03-21T02:30:50.015Z,67.23
2017-03-21T02:31:30.648Z,67.71
2017-03-21T02:32:11.280Z,67.14
2017-03-21T02:32:51.856Z,67.33
2017-03-21T02:33:32.467Z,67.42
2017-03-21T02:34:13.055Z,67.52
2017-03-21T02:34:53.642Z,67.23
2017-03-21T02:35:34.209Z,67.42
2017-03-21T02:36:14.810Z,67.61
2017-03-21T02:36:55.494Z,67.61
2017-03-21T02:37:36.095Z,67.14
2017-03-21T02:38:16.667Z,67.33
2017-03-21T02:38:57.252Z,67.23
2017-03-21T02:39:37.890Z,67.23
2017-03-21T02:40:18.479Z,67.23
2017-03-21T02:40:59.043Z,67.33
2017-03-21T02:41:39.633Z,67.04
2017-03-21T02:42:20.228Z,67.23
2017-03-21T02:43:00.831Z,67.23
2017-03-21T02:43:41.402Z,67.14
2017-03-21T02:44:21.969Z,67.52
2017-03-21T02:45:02.568Z,67.42
2017-03-21T02:45:43.158Z,67.23
2017-03-21T02:46:23.747Z,67.33
2017-03-21T02:47:04.348Z,67.52
2017-03-21T02:47:44.969Z,67.23
2017-03-21T02:48:25.582Z,67.33
2017-03-21T02:49:06.143Z,67.42
2017-03-21T02:49:46.717Z,67.14
2017-03-21T02:50:27.312Z,67.14
2017-03-21T02:51:07.909Z,67.33
2017-03-21T02:51:48.502Z,67.33
2017-03-21T02:52:29.101Z,67.52
2017-03-21T02:53:09.706Z,67.33
2017-03-21T02:53:50.305Z,67.61
2017-03-21T02:54:30.917Z,67.23
2017-03-21T02:55:11.502Z,67.42
2017-03-21T02:55:52.090Z,67.33
2017-03-21T02:56:32.729Z,67.33
2017-03-21T02:57:13.285Z,67.14
2017-03-21T02:57:53.891Z,67.04
2017-03-21T02:58:34.513Z,67.04
2017-03-21T02:59:15.067Z,67.14
2017-03-21T02:59:55.640Z,67.23
2017-03-21T03:00:36.239Z,67.33
2017-03-21T03:01:16.903Z,67.14
2017-03-21T03:01:57.482Z,67.14
2017-03-21T03:02:38.088Z,66.94
2017-03-21T03:03:18.685Z,67.14
2017-03-21T03:03:59.298Z,67.33
2017-03-21T03:04:39.934Z,67.14
2017-03-21T03:05:20.514Z,67.61
2017-03-21T03:06:01.138Z,67.42
2017-03-21T03:06:41.745Z,67.14
2017-03-21T03:07:22.338Z,67.14
2017-03-21T03:08:02.991Z,67.33
2017-03-21T03:08:43.561Z,67.23
2017-03-21T03:09:24.133Z,67.14
2017-03-21T03:10:04.705Z,67.23
2017-03-21T03:10:45.332Z,67.23
2017-03-21T03:11:25.903Z,67.23
2017-03-21T03:12:06.519Z,67.42
2017-03-21T03:12:47.097Z,66.75
2017-03-21T03:13:27.680Z,67.14
2017-03-21T03:14:08.306Z,67.04
2017-03-21T03:14:48.883Z,67.33
2017-03-21T03:15:29.459Z,67.14
2017-03-21T03:16:10.053Z,67.23
2017-03-21T03:16:50.676Z,67.04
2017-03-21T03:17:31.272Z,67.33
2017-03-21T03:18:11.896Z,67.42
2017-03-21T03:18:52.491Z,67.42
2017-03-21T03:19:33.101Z,67.42
2017-03-21T03:20:13.664Z,67.42
2017-03-21T03:20:54.248Z,67.33
2017-03-21T03:21:34.817Z,67.33
2017-03-21T03:22:15.463Z,67.23
2017-03-21T03:22:56.072Z,67.61
2017-03-21T03:23:36.668Z,67.42
2017-03-21T03:24:17.245Z,67.23
2017-03-21T03:24:57.842Z,67.42
2017-03-21T03:25:38.435Z,67.14
2017-03-21T03:26:19.043Z,67.42
2017-03-21T03:26:59.633Z,66.75
2017-03-21T03:27:40.224Z,67.14
2017-03-21T03:28:20.831Z,67.29
2017-03-21T03:29:01.421Z,67.23
2017-03-21T03:29:42.000Z,67.48
2017-03-21T03:30:22.587Z,67.29
2017-03-21T03:31:03.170Z,67.23
2017-03-21T03:31:43.774Z,67.29
2017-03-21T03:32:24.351Z,67.48
2017-03-21T03:33:04.931Z,67.2
2017-03-21T03:33:45.484Z,67.29
2017-03-21T03:34:26.079Z,67.39
2017-03-21T03:35:06.654Z,67.48
2017-03-21T03:35:47.280Z,67.48
2017-03-21T03:36:27.896Z,67.23
2017-03-21T03:37:08.448Z,67.29
2017-03-21T03:37:49.044Z,67.42
2017-03-21T03:38:29.630Z,67.52
2017-03-21T03:39:10.199Z,67.48
2017-03-21T03:39:50.791Z,67.39
2017-03-21T03:40:31.445Z,67.42
2017-03-21T03:41:12.040Z,67.2
2017-03-21T03:41:52.641Z,67.23
2017-03-21T03:42:33.223Z,67.33
2017-03-21T03:43:13.805Z,67
2017-03-21T03:43:54.380Z,67
2017-03-21T03:44:34.961Z,67.14
2017-03-21T03:45:15.555Z,67.14
2017-03-21T03:45:56.131Z,67.1
2017-03-21T03:46:36.696Z,67.48
2017-03-21T03:47:17.270Z,67.29
2017-03-21T03:47:57.862Z,67.42
2017-03-21T03:48:38.451Z,67.2
2017-03-21T03:49:19.069Z,67.1
2017-03-21T03:49:59.639Z,67.29
2017-03-21T03:50:40.244Z,66.91
2017-03-21T03:51:20.816Z,67.68
2017-03-21T03:52:01.395Z,67.14
2017-03-21T03:52:41.960Z,67.33
2017-03-21T03:53:22.549Z,67.14
2017-03-21T03:54:03.160Z,67
2017-03-21T03:54:43.724Z,66.85
2017-03-21T03:55:24.305Z,66.66
2017-03-21T03:56:04.879Z,66.63
2017-03-21T03:56:45.455Z,66.82
2017-03-21T03:57:26.036Z,67
2017-03-21T03:58:06.659Z,67.1
2017-03-21T03:58:47.257Z,66.91
2017-03-21T03:59:27.857Z,66.91
2017-03-21T04:00:08.442Z,66.85
2017-03-21T04:00:49.096Z,66.53
2017-03-21T04:01:29.671Z,66.94
2017-03-21T04:02:10.253Z,66.53
2017-03-21T04:02:50.855Z,66.82
2017-03-21T04:03:31.443Z,66.91
2017-03-21T04:04:12.087Z,66.53
2017-03-21T04:04:52.677Z,67
2017-03-21T04:05:33.299Z,66.82
2017-03-21T04:06:13.867Z,66.56
2017-03-21T04:06:54.459Z,66.72
2017-03-21T04:07:35.105Z,67.2
2017-03-21T04:08:15.697Z,67.14
2017-03-21T04:08:56.276Z,66.91
2017-03-21T04:09:36.860Z,67.1
2017-03-21T04:10:17.455Z,66.63
2017-03-21T04:10:58.065Z,67.2
2017-03-21T04:11:38.657Z,67.1
2017-03-21T04:12:19.267Z,67.1
2017-03-21T04:12:59.888Z,67.2
2017-03-21T04:13:40.465Z,67.1
2017-03-21T04:14:21.042Z,67.1
2017-03-21T04:15:01.619Z,67.1
2017-03-21T04:15:42.209Z,67.58
2017-03-21T04:16:22.808Z,67.48
2017-03-21T04:17:03.408Z,67.29
2017-03-21T04:17:43.961Z,67.39
2017-03-21T04:18:24.550Z,67.58
2017-03-21T04:19:05.143Z,67.1
2017-03-21T04:19:45.703Z,67.2
2017-03-21T04:20:26.308Z,67.2
2017-03-21T04:21:06.893Z,67.1
2017-03-21T04:21:47.516Z,67.29
2017-03-21T04:22:28.099Z,67.48
2017-03-21T04:23:08.712Z,67.39
2017-03-21T04:23:49.323Z,67.14
2017-03-21T04:24:29.918Z,67.04
2017-03-21T04:25:10.513Z,67.2
2017-03-21T04:25:51.122Z,67.1
2017-03-21T04:26:31.701Z,67.1
2017-03-21T04:27:12.342Z,67.71
2017-03-21T04:27:52.960Z,67.48
2017-03-21T04:28:33.540Z,67.1
2017-03-21T04:29:14.116Z,67.42
2017-03-21T04:29:54.700Z,67
2017-03-21T04:30:35.294Z,67.2
2017-03-21T04:31:15.903Z,67.58
2017-03-21T04:31:56.498Z,67.39
2017-03-21T04:32:37.074Z,67.48
2017-03-21T04:33:17.655Z,67.58
2017-03-21T04:33:58.286Z,67.2
2017-03-21T04:34:38.865Z,67.29
2017-03-21T04:35:19.461Z,67.42
2017-03-21T04:36:00.080Z,67.52
2017-03-21T04:36:40.688Z,67.48
2017-03-21T04:37:21.266Z,67.39
2017-03-21T04:38:01.856Z,66.91
2017-03-21T04:38:42.432Z,67
2017-03-21T04:39:23.015Z,67.58
2017-03-21T04:40:03.610Z,67.14
2017-03-21T04:40:44.195Z,67.48
2017-03-21T04:41:24.820Z,67.29
2017-03-21T04:42:05.408Z,67.48
2017-03-21T04:42:45.984Z,67.29
2017-03-21T04:43:26.590Z,67.29
2017-03-21T04:44:07.198Z,67.29
2017-03-21T04:44:47.808Z,67.39
2017-03-21T04:45:28.384Z,67.48
2017-03-21T04:46:09.021Z,67.39
2017-03-21T04:46:49.591Z,67.29
2017-03-21T04:47:30.157Z,67.2
2017-03-21T04:48:10.742Z,67.2
2017-03-21T04:48:51.343Z,67.1
2017-03-21T04:49:31.920Z,67.2
2017-03-21T04:50:12.526Z,67.1
2017-03-21T04:50:53.124Z,67.39
2017-03-21T04:51:33.714Z,67.48
2017-03-21T04:52:14.289Z,67.58
2017-03-21T04:52:54.910Z,67.48
2017-03-21T04:53:35.480Z,67.39
2017-03-21T04:54:16.059Z,67.48
2017-03-21T04:54:56.638Z,67.2
2017-03-21T04:55:37.218Z,67.48
2017-03-21T04:56:17.821Z,67.1
2017-03-21T04:56:58.450Z,67.77
2017-03-21T04:57:39.007Z,67.29
2017-03-21T04:58:19.609Z,67.29
2017-03-21T04:59:00.189Z,67.29
2017-03-21T04:59:40.830Z,67.48
2017-03-21T05:00:21.409Z,67.48
2017-03-21T05:01:01.981Z,67.58
2017-03-21T05:01:42.592Z,67.68
2017-03-21T05:02:23.186Z,67.77
2017-03-21T05:03:03.765Z,67.29
2017-03-21T05:03:44.363Z,67.77
2017-03-21T05:04:24.980Z,67.68
2017-03-21T05:05:05.502Z,68.72
2017-03-21T05:05:46.085Z,67.96
2017-03-21T05:06:26.661Z,68.44
2017-03-21T05:07:07.252Z,68.72
2017-03-21T05:07:47.854Z,68.34
2017-03-21T05:08:28.448Z,68.53
2017-03-21T05:09:09.035Z,68.05
2017-03-21T05:09:49.613Z,68.34
2017-03-21T05:10:30.193Z,68.63
2017-03-21T05:11:10.817Z,68.82
2017-03-21T05:11:51.396Z,68.63
2017-03-21T05:12:32.076Z,68.63
2017-03-21T05:13:12.670Z,68.72
2017-03-21T05:13:53.247Z,69.01
2017-03-21T05:14:33.870Z,68.72
2017-03-21T05:15:14.451Z,68.82
2017-03-21T05:15:55.086Z,68.72
2017-03-21T05:16:35.700Z,69.29
2017-03-21T05:17:16.288Z,68.91
2017-03-21T05:17:56.867Z,69.29
2017-03-21T05:18:37.466Z,69.68
2017-03-21T05:19:18.074Z,69.58
2017-03-21T05:19:58.676Z,69.39
2017-03-21T05:20:39.378Z,69.96
2017-03-21T05:21:19.999Z,69.68
2017-03-21T05:22:00.550Z,69.48
2017-03-21T05:22:41.179Z,70.25
2017-03-21T05:23:21.772Z,70.34
2017-03-21T05:24:02.346Z,70.34
2017-03-21T05:24:42.919Z,69.68
2017-03-21T05:25:23.485Z,70.15
2017-03-21T05:26:04.052Z,69.96
2017-03-21T05:26:44.657Z,70.34
2017-03-21T05:27:25.239Z,70.25
2017-03-21T05:28:05.855Z,69.48
2017-03-21T05:28:46.480Z,69.77
2017-03-21T05:29:27.111Z,69.68
2017-03-21T05:30:07.728Z,69.39
2017-03-21T05:30:48.466Z,69.1
2017-03-21T05:31:29.107Z,69.48
2017-03-21T05:32:09.683Z,69.68
2017-03-21T05:32:50.270Z,69.77
2017-03-21T05:33:30.858Z,69.96
2017-03-21T05:34:11.490Z,69.96
2017-03-21T05:34:52.095Z,69.96
2017-03-21T05:35:32.710Z,69.96
2017-03-21T05:36:13.323Z,69.96
2017-03-21T05:36:53.921Z,69.39
2017-03-21T05:37:34.583Z,69.39
2017-03-21T05:38:15.177Z,69.29
2017-03-21T05:38:55.766Z,69.77
2017-03-21T05:39:36.382Z,69.39
2017-03-21T05:40:16.962Z,69.39
2017-03-21T05:40:57.549Z,69.48
2017-03-21T05:41:38.130Z,69.39
2017-03-21T05:42:18.734Z,69.39
2017-03-21T05:42:59.310Z,69.39
2017-03-21T05:43:39.890Z,69.29
2017-03-21T05:44:20.465Z,69.58
2017-03-21T05:45:01.030Z,69.58
2017-03-21T05:45:41.637Z,69.48
2017-03-21T05:46:22.240Z,69.29
2017-03-21T05:47:02.852Z,69.48
2017-03-21T05:47:43.442Z,69.2
2017-03-21T05:48:24.031Z,68.82
2017-03-21T05:49:04.646Z,69.01
2017-03-21T05:49:45.254Z,68.91
2017-03-21T05:50:25.848Z,69.48
2017-03-21T05:51:06.449Z,68.91
2017-03-21T05:51:47.058Z,68.82
2017-03-21T05:52:27.656Z,69.01
2017-03-21T05:53:08.245Z,68.53
2017-03-21T05:53:48.821Z,69.1
2017-03-21T05:54:29.410Z,68.91
2017-03-21T05:55:10.036Z,68.72
2017-03-21T05:55:50.728Z,68.91
2017-03-21T05:56:31.339Z,68.82
2017-03-21T05:57:11.991Z,68.82
2017-03-21T05:57:52.804Z,69.2
2017-03-21T05:58:33.489Z,69.48
2017-03-21T05:59:14.240Z,69.48
2017-03-21T05:59:54.997Z,69.68
2017-03-21T06:00:35.745Z,69.29
2017-03-21T06:01:16.515Z,69.2
2017-03-21T06:01:57.386Z,69.01
2017-03-21T06:02:38.310Z,69.58
2017-03-21T06:03:19.045Z,69.58
2017-03-21T06:03:59.813Z,68.82
2017-03-21T06:04:40.786Z,69.1
2017-03-21T06:05:21.570Z,68.91
2017-03-21T06:06:02.236Z,68.91
2017-03-21T06:06:42.853Z,68.82
2017-03-21T06:07:23.701Z,69.2
2017-03-21T06:08:04.557Z,69.01
2017-03-21T06:08:45.353Z,68.91
2017-03-21T06:09:26.140Z,68.82
2017-03-21T06:10:06.904Z,68.91
2017-03-21T06:10:47.593Z,69.2
2017-03-21T06:11:28.398Z,69.29
2017-03-21T06:12:09.120Z,69.68
2017-03-21T06:12:50.045Z,69.29
2017-03-21T06:13:30.807Z,69.39
2017-03-21T06:14:11.537Z,69.1
2017-03-21T06:14:52.239Z,69.1
2017-03-21T06:15:33.083Z,69.39
2017-03-21T06:16:13.758Z,70.44
2017-03-21T06:16:54.571Z,70.15
2017-03-21T06:17:35.297Z,69.77
2017-03-21T06:18:16.093Z,69.39
2017-03-21T06:18:57.035Z,70.15
2017-03-21T06:19:37.670Z,69.48
2017-03-21T06:20:18.379Z,69.2
2017-03-21T06:20:59.225Z,69.04
2017-03-21T06:21:39.973Z,68.47
2017-03-21T06:22:20.717Z,67.71
2017-03-21T06:23:01.346Z,67.52
2017-03-21T06:23:42.057Z,67.52
2017-03-21T06:24:22.832Z,67.8
2017-03-21T06:25:03.489Z,67.33
2017-03-21T06:25:44.129Z,66.5
2017-03-21T06:26:24.867Z,66.41
2017-03-21T06:27:05.480Z,66.02
2017-03-21T06:27:46.297Z,65.17
2017-03-21T06:28:26.982Z,65.07
2017-03-21T06:29:07.660Z,64.97
2017-03-21T06:29:48.360Z,65.36
2017-03-21T06:30:29.153Z,64.5
2017-03-21T06:31:22.745Z,64.12
2017-03-21T06:32:09.466Z,64.12
2017-03-21T06:32:50.271Z,64.21
2017-03-21T06:33:31.038Z,64.21
2017-03-21T06:34:11.880Z,64.31
2017-03-21T06:34:52.763Z,64.59
2017-03-21T06:35:33.464Z,64.59
2017-03-21T06:36:14.276Z,64.59
2017-03-21T06:36:54.990Z,63.96
2017-03-21T06:37:35.753Z,64.05
2017-03-21T06:38:16.550Z,63.76
2017-03-21T06:38:57.339Z,63.2
2017-03-21T06:39:38.128Z,62.71
2017-03-21T06:40:18.852Z,62.81
2017-03-21T06:40:59.530Z,63
2017-03-21T06:41:40.283Z,62.59
2017-03-21T06:42:20.951Z,62.97
2017-03-21T06:43:01.678Z,63.16
2017-03-21T06:43:42.481Z,63.73
2017-03-21T06:44:23.354Z,63.73
2017-03-21T06:45:04.050Z,63.35
2017-03-21T06:45:45.205Z,63.92
2017-03-21T06:46:25.988Z,64.12
2017-03-21T06:47:06.818Z,64.21
2017-03-21T06:47:47.508Z,64.21
2017-03-21T06:48:28.263Z,64.21
2017-03-21T06:49:08.888Z,64.31
2017-03-21T06:49:49.631Z,64.21
2017-03-21T06:50:30.378Z,64.21
2017-03-21T06:51:11.189Z,64.47
2017-03-21T06:51:51.922Z,64.37
2017-03-21T06:52:32.592Z,64.56
2017-03-21T06:53:13.439Z,64.75
2017-03-21T06:53:54.145Z,64.56
2017-03-21T06:54:34.769Z,64.56
2017-03-21T06:55:15.446Z,65.23
2017-03-21T06:55:56.251Z,65.33
2017-03-21T06:56:37.039Z,65.8
2017-03-21T06:57:17.813Z,65.89
2017-03-21T06:57:58.691Z,66.09
2017-03-21T06:58:39.543Z,65.99
2017-03-21T06:59:20.264Z,66.18
2017-03-21T07:00:01.094Z,66.28
2017-03-21T07:00:41.871Z,66.47
2017-03-21T07:01:22.690Z,66.47
2017-03-21T07:02:03.399Z,66.47
2017-03-21T07:02:43.962Z,66.75
2017-03-21T07:03:24.846Z,67.61
2017-03-21T07:04:07.048Z,67.71
2017-03-21T07:04:47.689Z,67.52
2017-03-21T07:05:28.372Z,68.66
2017-03-21T07:06:09.233Z,69.23
2017-03-21T07:06:49.943Z,69.9
2017-03-21T07:07:30.615Z,71.14
2017-03-21T07:08:11.319Z,71.91
2017-03-21T07:08:51.974Z,71.91
2017-03-21T07:09:32.677Z,72.63
2017-03-21T07:10:13.422Z,73.11
2017-03-21T07:10:54.268Z,73.33
2017-03-21T07:11:34.771Z,73.77
2017-03-21T07:12:15.904Z,74.16
2017-03-21T07:12:56.553Z,74.63
2017-03-21T07:13:37.412Z,74.73
2017-03-21T07:14:18.070Z,75.01
2017-03-21T07:14:58.874Z,75.3
2017-03-21T07:15:39.671Z,75.4
2017-03-21T07:16:20.325Z,75.96
2017-03-21T07:17:01.047Z,75.96
2017-03-21T07:17:41.843Z,76.35
2017-03-21T07:18:22.579Z,76.06
2017-03-21T07:19:03.383Z,76.06
2017-03-21T07:19:44.142Z,76.16
2017-03-21T07:20:24.878Z,76.73
2017-03-21T07:21:05.786Z,76.44
2017-03-21T07:21:46.479Z,76.82
2017-03-21T07:22:27.297Z,77.11
2017-03-21T07:23:08.050Z,76.73
2017-03-21T07:23:48.976Z,77.11
2017-03-21T07:24:29.707Z,77.11
2017-03-21T07:25:10.370Z,77.01
2017-03-21T07:25:51.071Z,76.92
2017-03-21T07:26:31.864Z,77.26
2017-03-21T07:27:12.520Z,77.2
2017-03-21T07:27:53.342Z,77.59
2017-03-21T07:28:34.014Z,77.87
2017-03-21T07:29:14.659Z,78.16
2017-03-21T07:29:55.321Z,78.35
2017-03-21T07:30:36.054Z,77.87
2017-03-21T07:31:16.912Z,78.25
2017-03-21T07:31:57.590Z,78.12
2017-03-21T07:32:38.296Z,78.06
2017-03-21T07:33:19.031Z,78.16
2017-03-21T07:33:59.729Z,78.16
2017-03-21T07:34:40.440Z,78.35
2017-03-21T07:35:21.300Z,78.25
2017-03-21T07:36:02.012Z,78.54
2017-03-21T07:36:42.644Z,78.06
2017-03-21T07:37:23.374Z,78.25
2017-03-21T07:38:04.102Z,77.87
2017-03-21T07:38:44.971Z,78.35
2017-03-21T07:39:25.610Z,78.35
2017-03-21T07:40:06.400Z,78.92
2017-03-21T07:40:47.204Z,78.44
2017-03-21T07:41:29.026Z,78.25
2017-03-21T07:42:12.523Z,78.44
2017-03-21T07:42:54.137Z,78.54
2017-03-21T07:43:39.079Z,78.25
2017-03-21T07:44:22.147Z,78.16
2017-03-21T07:45:07.507Z,78.35
2017-03-21T07:45:50.512Z,78.25
2017-03-21T07:46:32.082Z,78.22
2017-03-21T07:47:12.787Z,78.31
2017-03-21T07:47:53.495Z,78.25
2017-03-21T07:48:34.403Z,78.25
2017-03-21T07:49:15.219Z,78.92
2017-03-21T07:49:55.945Z,78.78
2017-03-21T07:50:36.794Z,78.35
2017-03-21T07:51:17.529Z,78.44
2017-03-21T07:51:58.416Z,78.92
2017-03-21T07:52:39.115Z,78.92
2017-03-21T07:53:19.940Z,78.83
2017-03-21T07:54:00.689Z,78.35
2017-03-21T07:54:41.444Z,78.25
2017-03-21T07:55:22.292Z,78.12
2017-03-21T07:56:03.052Z,78.12
2017-03-21T07:56:43.902Z,78.41
2017-03-21T07:57:24.582Z,78.5
2017-03-21T07:58:05.371Z,78.31
2017-03-21T07:58:46.157Z,78.35
2017-03-21T07:59:26.981Z,78.54
2017-03-21T08:00:07.861Z,78.35
2017-03-21T08:00:48.558Z,78.83
2017-03-21T08:01:29.231Z,78.16
2017-03-21T08:02:09.962Z,78.25
2017-03-21T08:02:50.673Z,78.83
2017-03-21T08:03:31.497Z,78.73
2017-03-21T08:04:12.324Z,78.83
2017-03-21T08:04:53.047Z,78.83
2017-03-21T08:05:33.748Z,78.25
2017-03-21T08:06:14.578Z,78.1
2017-03-21T08:06:55.356Z,77.62
2017-03-21T08:07:36.180Z,76.96
2017-03-21T08:08:16.891Z,76.96
2017-03-21T08:08:57.607Z,76.48
2017-03-21T08:09:38.364Z,76.39
2017-03-21T08:10:19.111Z,76.14
2017-03-21T08:11:00.067Z,75.18
2017-03-21T08:11:40.719Z,74.8
2017-03-21T08:12:21.500Z,74.42
2017-03-21T08:13:02.140Z,73.75
2017-03-21T08:13:42.971Z,73.47
2017-03-21T08:14:23.742Z,73.18
2017-03-21T08:15:04.435Z,73.18
2017-03-21T08:15:45.140Z,73.28
2017-03-21T08:16:25.960Z,72.99
2017-03-21T08:17:06.734Z,73.08
2017-03-21T08:17:47.521Z,73.18
2017-03-21T08:18:28.269Z,73.75
2017-03-21T08:19:09.044Z,73.28
2017-03-21T08:19:49.712Z,73.08
2017-03-21T08:20:30.447Z,73.32
2017-03-21T08:21:11.107Z,73.69
2017-03-21T08:21:51.884Z,73.22
2017-03-21T08:22:32.667Z,72.97
2017-03-21T08:23:13.444Z,71.82
2017-03-21T08:23:54.280Z,71.25
2017-03-21T08:24:35.090Z,70.29
2017-03-21T08:25:15.819Z,69.24
2017-03-21T08:25:56.663Z,68.38
2017-03-21T08:26:37.391Z,68.48
2017-03-21T08:27:18.018Z,68.67
2017-03-21T08:27:58.747Z,68.86
2017-03-21T08:28:39.449Z,68.96
2017-03-21T08:29:20.137Z,68.96
2017-03-21T08:30:00.924Z,68.96
2017-03-21T08:30:41.804Z,68.92
2017-03-21T08:31:22.583Z,68.92
2017-03-21T08:32:03.469Z,69.31
2017-03-21T08:32:44.225Z,69.02
2017-03-21T08:33:24.952Z,69.11
2017-03-21T08:34:05.662Z,69.59
2017-03-21T08:34:46.337Z,69.11
2017-03-21T08:35:27.078Z,69.4
2017-03-21T08:36:07.909Z,68.82
2017-03-21T08:36:48.681Z,68.92
2017-03-21T08:37:29.485Z,68.73
2017-03-21T08:38:10.194Z,68.92
2017-03-21T08:38:51.036Z,68.96
2017-03-21T08:39:31.836Z,68.57
2017-03-21T08:40:12.603Z,68
2017-03-21T08:40:53.488Z,67.43
2017-03-21T08:41:34.292Z,67.91
2017-03-21T08:42:15.063Z,67.52
2017-03-21T08:42:55.769Z,68
2017-03-21T08:43:36.476Z,68.38
2017-03-21T08:44:17.364Z,68.1
2017-03-21T08:44:58.165Z,66.66
2017-03-21T08:45:39.091Z,66.6
2017-03-21T08:46:19.842Z,66.41
2017-03-21T08:47:00.540Z,66.41
2017-03-21T08:47:41.151Z,66.5